sensor_id;sensor_type;location;lat;lon;timestamp;pressure;altitude;pressure_sealevel;temperature
60731;BMP280;46580;52.114;11.674;2023-12-20T00:01:02;-19407.84;;;6.96
60731;BMP280;46580;52.114;11.674;2023-12-20T00:03:28;-19407.41;;;6.94
60731;BMP280;46580;52.114;11.674;2023-12-20T00:05:54;-19408.25;;;6.97
60731;BMP280;46580;52.114;11.674;2023-12-20T00:08:19;-19408.41;;;6.98
60731;BMP280;46580;52.114;11.674;2023-12-20T00:10:44;-19407.84;;;6.96
60731;BMP280;46580;52.114;11.674;2023-12-20T00:13:10;-19408.97;;;7.00
60731;BMP280;46580;52.114;11.674;2023-12-20T00:15:35;-19408.69;;;6.99
60731;BMP280;46580;52.114;11.674;2023-12-20T00:18:02;-19408.69;;;6.99
60731;BMP280;46580;52.114;11.674;2023-12-20T00:20:28;-19408.84;;;6.99
60731;BMP280;46580;52.114;11.674;2023-12-20T00:22:57;-19408.84;;;6.99
60731;BMP280;46580;52.114;11.674;2023-12-20T00:25:23;-19409.84;;;7.03
60731;BMP280;46580;52.114;11.674;2023-12-20T00:27:49;-19410.41;;;7.05
60731;BMP280;46580;52.114;11.674;2023-12-20T00:30:14;-19410.00;;;7.03
60731;BMP280;46580;52.114;11.674;2023-12-20T00:32:40;-19409.69;;;7.02
60731;BMP280;46580;52.114;11.674;2023-12-20T00:35:14;-19409.56;;;7.02
60731;BMP280;46580;52.114;11.674;2023-12-20T00:37:39;-19409.56;;;7.02
60731;BMP280;46580;52.114;11.674;2023-12-20T00:40:05;-19409.56;;;7.02
60731;BMP280;46580;52.114;11.674;2023-12-20T00:42:31;-19409.69;;;7.02
60731;BMP280;46580;52.114;11.674;2023-12-20T00:44:58;-19409.84;;;7.03
60731;BMP280;46580;52.114;11.674;2023-12-20T00:47:23;-19409.28;;;7.01
60731;BMP280;46580;52.114;11.674;2023-12-20T00:49:49;-19409.84;;;7.03
60731;BMP280;46580;52.114;11.674;2023-12-20T00:52:14;-19410.28;;;7.04
60731;BMP280;46580;52.114;11.674;2023-12-20T00:54:42;-19410.41;;;7.05
60731;BMP280;46580;52.114;11.674;2023-12-20T00:57:07;-19411.84;;;7.09
60731;BMP280;46580;52.114;11.674;2023-12-20T00:59:33;-19411.28;;;7.07
60731;BMP280;46580;52.114;11.674;2023-12-20T01:01:58;-19411.00;;;7.06
60731;BMP280;46580;52.114;11.674;2023-12-20T01:04:23;-19411.41;;;7.08
60731;BMP280;46580;52.114;11.674;2023-12-20T01:06:49;-19412.00;;;7.10
60731;BMP280;46580;52.114;11.674;2023-12-20T01:09:14;-19413.00;;;7.13
60731;BMP280;46580;52.114;11.674;2023-12-20T01:11:40;-19412.84;;;7.13
60731;BMP280;46580;52.114;11.674;2023-12-20T01:14:06;-19413.28;;;7.14
60731;BMP280;46580;52.114;11.674;2023-12-20T01:16:32;-19413.28;;;7.14
60731;BMP280;46580;52.114;11.674;2023-12-20T01:18:58;-19412.72;;;7.12
60731;BMP280;46580;52.114;11.674;2023-12-20T01:21:24;-19413.00;;;7.13
60731;BMP280;46580;52.114;11.674;2023-12-20T01:23:50;-19412.56;;;7.12
60731;BMP280;46580;52.114;11.674;2023-12-20T01:26:16;-19413.00;;;7.13
60731;BMP280;46580;52.114;11.674;2023-12-20T01:28:42;-19414.00;;;7.17
60731;BMP280;46580;52.114;11.674;2023-12-20T01:31:08;-19414.56;;;7.19
60731;BMP280;46580;52.114;11.674;2023-12-20T01:33:34;-19415.00;;;7.20
60731;BMP280;46580;52.114;11.674;2023-12-20T01:35:59;-19417.16;;;7.27
60731;BMP280;46580;52.114;11.674;2023-12-20T01:38:25;-19416.28;;;7.24
60731;BMP280;46580;52.114;11.674;2023-12-20T01:40:50;-19416.16;;;7.24
60731;BMP280;46580;52.114;11.674;2023-12-20T01:43:16;-19416.16;;;7.24
60731;BMP280;46580;52.114;11.674;2023-12-20T01:45:42;-19417.00;;;7.27
60731;BMP280;46580;52.114;11.674;2023-12-20T01:48:08;-19416.59;;;7.25
60731;BMP280;46580;52.114;11.674;2023-12-20T01:50:36;-19416.00;;;7.23
60731;BMP280;46580;52.114;11.674;2023-12-20T01:53:02;-19416.00;;;7.23
60731;BMP280;46580;52.114;11.674;2023-12-20T01:55:31;-19414.44;;;7.18
60731;BMP280;46580;52.114;11.674;2023-12-20T01:57:59;-19413.72;;;7.16
60731;BMP280;46580;52.114;11.674;2023-12-20T02:00:26;-19412.00;;;7.10
60731;BMP280;46580;52.114;11.674;2023-12-20T02:02:54;-19408.69;;;6.99
60731;BMP280;46580;52.114;11.674;2023-12-20T02:05:21;-19407.25;;;6.94
60731;BMP280;46580;52.114;11.674;2023-12-20T02:07:47;-19405.53;;;6.88
60731;BMP280;46580;52.114;11.674;2023-12-20T02:10:12;-19403.81;;;6.82
60731;BMP280;46580;52.114;11.674;2023-12-20T02:12:38;-19402.38;;;6.77
60731;BMP280;46580;52.114;11.674;2023-12-20T02:15:04;-19401.81;;;6.75
60731;BMP280;46580;52.114;11.674;2023-12-20T02:17:31;-19400.38;;;6.70
60731;BMP280;46580;52.114;11.674;2023-12-20T02:19:57;-19399.81;;;6.68
60731;BMP280;46580;52.114;11.674;2023-12-20T02:22:22;-19398.94;;;6.66
60731;BMP280;46580;52.114;11.674;2023-12-20T02:24:48;-19399.09;;;6.66
60731;BMP280;46580;52.114;11.674;2023-12-20T02:27:15;-19399.50;;;6.68
60731;BMP280;46580;52.114;11.674;2023-12-20T02:29:43;-19400.66;;;6.71
60731;BMP280;46580;52.114;11.674;2023-12-20T02:32:09;-19401.38;;;6.74
60731;BMP280;46580;52.114;11.674;2023-12-20T02:34:34;-19402.09;;;6.76
60731;BMP280;46580;52.114;11.674;2023-12-20T02:37:01;-19402.97;;;6.79
60731;BMP280;46580;52.114;11.674;2023-12-20T02:39:26;-19403.69;;;6.82
60731;BMP280;46580;52.114;11.674;2023-12-20T02:41:51;-19404.41;;;6.84
60731;BMP280;46580;52.114;11.674;2023-12-20T02:44:17;-19404.81;;;6.86
60731;BMP280;46580;52.114;11.674;2023-12-20T02:46:42;-19405.25;;;6.87
60731;BMP280;46580;52.114;11.674;2023-12-20T02:49:07;-19405.97;;;6.89
60731;BMP280;46580;52.114;11.674;2023-12-20T02:51:33;-19406.53;;;6.91
60731;BMP280;46580;52.114;11.674;2023-12-20T02:53:58;-19405.97;;;6.89
60731;BMP280;46580;52.114;11.674;2023-12-20T02:56:23;-19406.41;;;6.91
60731;BMP280;46580;52.114;11.674;2023-12-20T02:58:49;-19406.53;;;6.91
60731;BMP280;46580;52.114;11.674;2023-12-20T03:01:14;-19406.41;;;6.91
60731;BMP280;46580;52.114;11.674;2023-12-20T03:03:39;-19406.97;;;6.93
60731;BMP280;46580;52.114;11.674;2023-12-20T03:06:05;-19408.13;;;6.97
60731;BMP280;46580;52.114;11.674;2023-12-20T03:08:30;-19407.69;;;6.95
60731;BMP280;46580;52.114;11.674;2023-12-20T03:10:59;-19407.41;;;6.94
60731;BMP280;46580;52.114;11.674;2023-12-20T03:13:24;-19407.25;;;6.94
60731;BMP280;46580;52.114;11.674;2023-12-20T03:15:51;-19406.97;;;6.93
60731;BMP280;46580;52.114;11.674;2023-12-20T03:18:16;-19407.13;;;6.93
60731;BMP280;46580;52.114;11.674;2023-12-20T03:20:43;-19406.25;;;6.90
60731;BMP280;46580;52.114;11.674;2023-12-20T03:23:08;-19405.53;;;6.88
60731;BMP280;46580;52.114;11.674;2023-12-20T03:25:36;-19404.81;;;6.86
60731;BMP280;46580;52.114;11.674;2023-12-20T03:28:02;-19404.25;;;6.84
60731;BMP280;46580;52.114;11.674;2023-12-20T03:30:27;-19403.81;;;6.82
60731;BMP280;46580;52.114;11.674;2023-12-20T03:32:52;-19403.09;;;6.80
60731;BMP280;46580;52.114;11.674;2023-12-20T03:35:18;-19401.97;;;6.76
60731;BMP280;46580;52.114;11.674;2023-12-20T03:37:45;-19400.66;;;6.71
60731;BMP280;46580;52.114;11.674;2023-12-20T03:40:10;-19399.94;;;6.69
60731;BMP280;46580;52.114;11.674;2023-12-20T03:42:36;-19398.66;;;6.65
60731;BMP280;46580;52.114;11.674;2023-12-20T03:45:02;-19397.09;;;6.59
60731;BMP280;46580;52.114;11.674;2023-12-20T03:47:29;-19395.78;;;6.55
60731;BMP280;46580;52.114;11.674;2023-12-20T03:49:54;-19395.78;;;6.55
60731;BMP280;46580;52.114;11.674;2023-12-20T03:52:21;-19394.50;;;6.50
60731;BMP280;46580;52.114;11.674;2023-12-20T03:54:46;-19393.22;;;6.46
60731;BMP280;46580;52.114;11.674;2023-12-20T03:57:12;-19393.22;;;6.46
60731;BMP280;46580;52.114;11.674;2023-12-20T03:59:37;-19392.50;;;6.44
60731;BMP280;46580;52.114;11.674;2023-12-20T04:02:03;-19391.19;;;6.39
60731;BMP280;46580;52.114;11.674;2023-12-20T04:04:29;-19390.34;;;6.36
60731;BMP280;46580;52.114;11.674;2023-12-20T04:06:55;-19389.47;;;6.33
60731;BMP280;46580;52.114;11.674;2023-12-20T04:09:20;-19388.91;;;6.31
60731;BMP280;46580;52.114;11.674;2023-12-20T04:11:46;-19387.91;;;6.28
60731;BMP280;46580;52.114;11.674;2023-12-20T04:14:13;-19387.47;;;6.27
60731;BMP280;46580;52.114;11.674;2023-12-20T04:16:39;-19388.34;;;6.30
60731;BMP280;46580;52.114;11.674;2023-12-20T04:19:04;-19387.63;;;6.27
60731;BMP280;46580;52.114;11.674;2023-12-20T04:21:30;-19386.47;;;6.23
60731;BMP280;46580;52.114;11.674;2023-12-20T04:23:56;-19386.03;;;6.22
60731;BMP280;46580;52.114;11.674;2023-12-20T04:26:22;-19386.31;;;6.23
60731;BMP280;46580;52.114;11.674;2023-12-20T04:28:47;-19386.31;;;6.23
60731;BMP280;46580;52.114;11.674;2023-12-20T04:31:13;-19385.19;;;6.19
60731;BMP280;46580;52.114;11.674;2023-12-20T04:33:39;-19384.03;;;6.15
60731;BMP280;46580;52.114;11.674;2023-12-20T04:36:05;-19383.03;;;6.12
60731;BMP280;46580;52.114;11.674;2023-12-20T04:38:30;-19383.59;;;6.13
60731;BMP280;46580;52.114;11.674;2023-12-20T04:40:57;-19382.31;;;6.09
60731;BMP280;46580;52.114;11.674;2023-12-20T04:43:22;-19381.88;;;6.08
60731;BMP280;46580;52.114;11.674;2023-12-20T04:45:48;-19381.59;;;6.07
60731;BMP280;46580;52.114;11.674;2023-12-20T04:48:13;-19382.59;;;6.10
60731;BMP280;46580;52.114;11.674;2023-12-20T04:50:39;-19381.16;;;6.05
60731;BMP280;46580;52.114;11.674;2023-12-20T04:53:04;-19381.16;;;6.05
60731;BMP280;46580;52.114;11.674;2023-12-20T04:55:30;-19380.00;;;6.01
60731;BMP280;46580;52.114;11.674;2023-12-20T04:57:56;-19379.44;;;5.99
60731;BMP280;46580;52.114;11.674;2023-12-20T05:00:23;-19379.00;;;5.98
60731;BMP280;46580;52.114;11.674;2023-12-20T05:02:48;-19378.56;;;5.96
60731;BMP280;46580;52.114;11.674;2023-12-20T05:05:14;-19377.00;;;5.91
60731;BMP280;46580;52.114;11.674;2023-12-20T05:07:41;-19376.56;;;5.90
60731;BMP280;46580;52.114;11.674;2023-12-20T05:10:07;-19375.13;;;5.85
60731;BMP280;46580;52.114;11.674;2023-12-20T05:12:35;-19373.69;;;5.80
60731;BMP280;46580;52.114;11.674;2023-12-20T05:15:01;-19372.41;;;5.75
60731;BMP280;46580;52.114;11.674;2023-12-20T05:17:26;-19371.25;;;5.72
60731;BMP280;46580;52.114;11.674;2023-12-20T05:19:51;-19370.25;;;5.68
60731;BMP280;46580;52.114;11.674;2023-12-20T05:22:19;-19368.81;;;5.63
60731;BMP280;46580;52.114;11.674;2023-12-20T05:24:45;-19367.94;;;5.60
60731;BMP280;46580;52.114;11.674;2023-12-20T05:27:11;-19366.94;;;5.57
60731;BMP280;46580;52.114;11.674;2023-12-20T05:29:36;-19366.09;;;5.54
60731;BMP280;46580;52.114;11.674;2023-12-20T05:32:02;-19364.94;;;5.50
60731;BMP280;46580;52.114;11.674;2023-12-20T05:34:31;-19364.78;;;5.50
60731;BMP280;46580;52.114;11.674;2023-12-20T05:37:01;-19365.09;;;5.51
60731;BMP280;46580;52.114;11.674;2023-12-20T05:39:27;-19364.50;;;5.49
60731;BMP280;46580;52.114;11.674;2023-12-20T05:41:52;-19366.22;;;5.55
60731;BMP280;46580;52.114;11.674;2023-12-20T05:44:18;-19366.53;;;5.56
60731;BMP280;46580;52.114;11.674;2023-12-20T05:46:44;-19366.81;;;5.56
60731;BMP280;46580;52.114;11.674;2023-12-20T05:49:09;-19368.09;;;5.61
60731;BMP280;46580;52.114;11.674;2023-12-20T05:51:36;-19369.09;;;5.64
60731;BMP280;46580;52.114;11.674;2023-12-20T05:54:01;-19369.53;;;5.66
60731;BMP280;46580;52.114;11.674;2023-12-20T05:56:27;-19369.81;;;5.67
60731;BMP280;46580;52.114;11.674;2023-12-20T05:58:52;-19369.97;;;5.67
60731;BMP280;46580;52.114;11.674;2023-12-20T06:01:18;-19371.25;;;5.72
60731;BMP280;46580;52.114;11.674;2023-12-20T06:03:43;-19373.41;;;5.79
60731;BMP280;46580;52.114;11.674;2023-12-20T06:06:11;-19373.97;;;5.81
60731;BMP280;46580;52.114;11.674;2023-12-20T06:08:39;-19376.00;;;5.88
60731;BMP280;46580;52.114;11.674;2023-12-20T06:11:05;-19377.56;;;5.93
60731;BMP280;46580;52.114;11.674;2023-12-20T06:13:31;-19380.44;;;6.03
60731;BMP280;46580;52.114;11.674;2023-12-20T06:15:56;-19383.31;;;6.13
60731;BMP280;46580;52.114;11.674;2023-12-20T06:18:22;-19383.88;;;6.14
60731;BMP280;46580;52.114;11.674;2023-12-20T06:20:49;-19385.31;;;6.19
60731;BMP280;46580;52.114;11.674;2023-12-20T06:23:14;-19386.31;;;6.23
60731;BMP280;46580;52.114;11.674;2023-12-20T06:25:41;-19386.91;;;6.25
60731;BMP280;46580;52.114;11.674;2023-12-20T06:28:06;-19386.59;;;6.24
60731;BMP280;46580;52.114;11.674;2023-12-20T06:30:33;-19385.75;;;6.21
60731;BMP280;46580;52.114;11.674;2023-12-20T06:32:59;-19386.59;;;6.24
60731;BMP280;46580;52.114;11.674;2023-12-20T06:35:25;-19388.03;;;6.29
60731;BMP280;46580;52.114;11.674;2023-12-20T06:37:51;-19389.75;;;6.34
60731;BMP280;46580;52.114;11.674;2023-12-20T06:40:17;-19389.75;;;6.34
60731;BMP280;46580;52.114;11.674;2023-12-20T06:42:45;-19390.06;;;6.35
60731;BMP280;46580;52.114;11.674;2023-12-20T06:45:11;-19390.06;;;6.35
60731;BMP280;46580;52.114;11.674;2023-12-20T06:47:37;-19389.91;;;6.35
60731;BMP280;46580;52.114;11.674;2023-12-20T06:50:03;-19390.91;;;6.38
60731;BMP280;46580;52.114;11.674;2023-12-20T06:52:29;-19390.34;;;6.36
60731;BMP280;46580;52.114;11.674;2023-12-20T06:54:57;-19390.19;;;6.36
60731;BMP280;46580;52.114;11.674;2023-12-20T06:57:23;-19390.78;;;6.38
60731;BMP280;46580;52.114;11.674;2023-12-20T06:59:55;-19390.91;;;6.38
60731;BMP280;46580;52.114;11.674;2023-12-20T07:02:20;-19391.47;;;6.40
60731;BMP280;46580;52.114;11.674;2023-12-20T07:04:47;-19392.94;;;6.45
60731;BMP280;46580;52.114;11.674;2023-12-20T07:07:13;-19393.63;;;6.48
60731;BMP280;46580;52.114;11.674;2023-12-20T07:09:39;-19395.38;;;6.53
60731;BMP280;46580;52.114;11.674;2023-12-20T07:12:07;-19394.50;;;6.50
60731;BMP280;46580;52.114;11.674;2023-12-20T07:14:33;-19395.78;;;6.55
60731;BMP280;46580;52.114;11.674;2023-12-20T07:16:58;-19395.94;;;6.55
60731;BMP280;46580;52.114;11.674;2023-12-20T07:19:25;-19397.66;;;6.61
60731;BMP280;46580;52.114;11.674;2023-12-20T07:21:51;-19397.22;;;6.60
60731;BMP280;46580;52.114;11.674;2023-12-20T07:24:18;-19397.22;;;6.60
60731;BMP280;46580;52.114;11.674;2023-12-20T07:26:43;-19396.66;;;6.58
60731;BMP280;46580;52.114;11.674;2023-12-20T07:29:10;-19396.50;;;6.57
60731;BMP280;46580;52.114;11.674;2023-12-20T07:31:36;-19395.78;;;6.55
60731;BMP280;46580;52.114;11.674;2023-12-20T07:34:03;-19395.78;;;6.55
60731;BMP280;46580;52.114;11.674;2023-12-20T07:36:31;-19396.06;;;6.56
60731;BMP280;46580;52.114;11.674;2023-12-20T07:38:56;-19395.50;;;6.54
60731;BMP280;46580;52.114;11.674;2023-12-20T07:41:22;-19396.06;;;6.56
60731;BMP280;46580;52.114;11.674;2023-12-20T07:43:48;-19395.78;;;6.55
60731;BMP280;46580;52.114;11.674;2023-12-20T07:46:14;-19396.06;;;6.56
60731;BMP280;46580;52.114;11.674;2023-12-20T07:48:40;-19396.50;;;6.57
60731;BMP280;46580;52.114;11.674;2023-12-20T07:51:06;-19397.78;;;6.62
60731;BMP280;46580;52.114;11.674;2023-12-20T07:53:33;-19399.50;;;6.68
60731;BMP280;46580;52.114;11.674;2023-12-20T07:56:02;-19399.22;;;6.67
60731;BMP280;46580;52.114;11.674;2023-12-20T07:58:27;-19399.81;;;6.68
60731;BMP280;46580;52.114;11.674;2023-12-20T08:00:55;-19399.81;;;6.68
60731;BMP280;46580;52.114;11.674;2023-12-20T08:03:20;-19402.38;;;6.77
60731;BMP280;46580;52.114;11.674;2023-12-20T08:05:45;-19403.69;;;6.82
60731;BMP280;46580;52.114;11.674;2023-12-20T08:08:11;-19404.69;;;6.85
60731;BMP280;46580;52.114;11.674;2023-12-20T08:10:37;-19404.69;;;6.85
60731;BMP280;46580;52.114;11.674;2023-12-20T08:13:02;-19405.13;;;6.87
60731;BMP280;46580;52.114;11.674;2023-12-20T08:15:28;-19405.25;;;6.87
60731;BMP280;46580;52.114;11.674;2023-12-20T08:17:53;-19404.97;;;6.86
60731;BMP280;46580;52.114;11.674;2023-12-20T08:20:18;-19405.25;;;6.87
60731;BMP280;46580;52.114;11.674;2023-12-20T08:22:45;-19404.53;;;6.85
60731;BMP280;46580;52.114;11.674;2023-12-20T08:25:11;-19404.09;;;6.83
60731;BMP280;46580;52.114;11.674;2023-12-20T08:27:40;-19404.09;;;6.83
60731;BMP280;46580;52.114;11.674;2023-12-20T08:30:06;-19404.97;;;6.86
60731;BMP280;46580;52.114;11.674;2023-12-20T08:32:33;-19404.81;;;6.86
60731;BMP280;46580;52.114;11.674;2023-12-20T08:34:59;-19405.25;;;6.87
60731;BMP280;46580;52.114;11.674;2023-12-20T08:37:24;-19405.25;;;6.87
60731;BMP280;46580;52.114;11.674;2023-12-20T08:39:50;-19403.81;;;6.82
60731;BMP280;46580;52.114;11.674;2023-12-20T08:42:16;-19403.38;;;6.81
60731;BMP280;46580;52.114;11.674;2023-12-20T08:44:43;-19403.97;;;6.83
60731;BMP280;46580;52.114;11.674;2023-12-20T08:47:09;-19405.97;;;6.89
60731;BMP280;46580;52.114;11.674;2023-12-20T08:49:38;-19408.97;;;7.00
60731;BMP280;46580;52.114;11.674;2023-12-20T08:52:04;-19411.56;;;7.08
60731;BMP280;46580;52.114;11.674;2023-12-20T08:54:30;-19410.41;;;7.05
60731;BMP280;46580;52.114;11.674;2023-12-20T08:56:56;-19411.00;;;7.06
60731;BMP280;46580;52.114;11.674;2023-12-20T08:59:21;-19411.00;;;7.06
60731;BMP280;46580;52.114;11.674;2023-12-20T09:01:48;-19411.56;;;7.08
60731;BMP280;46580;52.114;11.674;2023-12-20T09:04:19;-19412.13;;;7.10
60731;BMP280;46580;52.114;11.674;2023-12-20T09:06:44;-19413.28;;;7.14
60731;BMP280;46580;52.114;11.674;2023-12-20T09:09:10;-19413.56;;;7.15
60731;BMP280;46580;52.114;11.674;2023-12-20T09:11:38;-19414.00;;;7.17
60731;BMP280;46580;52.114;11.674;2023-12-20T09:14:04;-19416.16;;;7.24
60731;BMP280;46580;52.114;11.674;2023-12-20T09:16:30;-19418.16;;;7.31
60731;BMP280;46580;52.114;11.674;2023-12-20T09:18:56;-19420.44;;;7.39
60731;BMP280;46580;52.114;11.674;2023-12-20T09:21:22;-19422.88;;;7.47
60731;BMP280;46580;52.114;11.674;2023-12-20T09:23:47;-19422.47;;;7.45
60731;BMP280;46580;52.114;11.674;2023-12-20T09:26:12;-19422.47;;;7.45
60731;BMP280;46580;52.114;11.674;2023-12-20T09:28:38;-19422.03;;;7.44
60731;BMP280;46580;52.114;11.674;2023-12-20T09:31:05;-19423.03;;;7.47
60731;BMP280;46580;52.114;11.674;2023-12-20T09:33:33;-19423.88;;;7.50
60731;BMP280;46580;52.114;11.674;2023-12-20T09:35:59;-19423.03;;;7.47
60731;BMP280;46580;52.114;11.674;2023-12-20T09:38:24;-19421.31;;;7.42
60731;BMP280;46580;52.114;11.674;2023-12-20T09:40:50;-19420.16;;;7.38
60731;BMP280;46580;52.114;11.674;2023-12-20T09:43:19;-19421.59;;;7.42
60731;BMP280;46580;52.114;11.674;2023-12-20T09:45:46;-19424.47;;;7.52
60731;BMP280;46580;52.114;11.674;2023-12-20T09:48:12;-19424.19;;;7.51
60731;BMP280;46580;52.114;11.674;2023-12-20T09:50:40;-19426.19;;;7.58
60731;BMP280;46580;52.114;11.674;2023-12-20T09:53:07;-19429.78;;;7.70
60731;BMP280;46580;52.114;11.674;2023-12-20T09:55:35;-19431.50;;;7.76
60731;BMP280;46580;52.114;11.674;2023-12-20T09:58:01;-19433.78;;;7.84
60731;BMP280;46580;52.114;11.674;2023-12-20T10:00:26;-19436.50;;;7.93
60731;BMP280;46580;52.114;11.674;2023-12-20T10:02:57;-19437.38;;;7.96
60731;BMP280;46580;52.114;11.674;2023-12-20T10:05:31;-19437.94;;;7.98
60731;BMP280;46580;52.114;11.674;2023-12-20T10:07:57;-19439.53;;;8.03
60731;BMP280;46580;52.114;11.674;2023-12-20T10:10:23;-19439.38;;;8.03
60731;BMP280;46580;52.114;11.674;2023-12-20T10:13:09;-19440.09;;;8.05
60731;BMP280;46580;52.114;11.674;2023-12-20T10:15:36;-19440.38;;;8.06
60731;BMP280;46580;52.114;11.674;2023-12-20T10:18:02;-19440.81;;;8.08
60731;BMP280;46580;52.114;11.674;2023-12-20T10:20:29;-19440.25;;;8.06
60731;BMP280;46580;52.114;11.674;2023-12-20T10:22:56;-19441.66;;;8.11
60731;BMP280;46580;52.114;11.674;2023-12-20T10:25:22;-19444.69;;;8.21
60731;BMP280;46580;52.114;11.674;2023-12-20T10:27:49;-19446.53;;;8.27
60731;BMP280;46580;52.114;11.674;2023-12-20T10:30:14;-19447.97;;;8.32
60731;BMP280;46580;52.114;11.674;2023-12-20T10:32:40;-19451.41;;;8.44
60731;BMP280;46580;52.114;11.674;2023-12-20T10:35:08;-19451.97;;;8.46
60731;BMP280;46580;52.114;11.674;2023-12-20T10:37:37;-19451.41;;;8.44
60731;BMP280;46580;52.114;11.674;2023-12-20T10:40:04;-19447.53;;;8.31
60731;BMP280;46580;52.114;11.674;2023-12-20T10:42:31;-19445.09;;;8.22
60731;BMP280;46580;52.114;11.674;2023-12-20T10:45:01;-19442.81;;;8.15
60731;BMP280;46580;52.114;11.674;2023-12-20T10:47:30;-19441.53;;;8.10
60731;BMP280;46580;52.114;11.674;2023-12-20T10:49:57;-19439.09;;;8.02
60731;BMP280;46580;52.114;11.674;2023-12-20T10:52:23;-19438.22;;;7.99
60731;BMP280;46580;52.114;11.674;2023-12-20T10:58:42;-19437.06;;;7.95
60731;BMP280;46580;52.114;11.674;2023-12-20T11:01:12;-19437.06;;;7.95
60731;BMP280;46580;52.114;11.674;2023-12-20T11:03:38;-19437.22;;;7.96
60731;BMP280;46580;52.114;11.674;2023-12-20T11:06:17;-19437.78;;;7.97
60731;BMP280;46580;52.114;11.674;2023-12-20T11:08:55;-19437.78;;;7.97
60731;BMP280;46580;52.114;11.674;2023-12-20T11:14:15;-19439.66;;;8.04
60731;BMP280;46580;52.114;11.674;2023-12-20T11:16:42;-19439.81;;;8.04
60731;BMP280;46580;52.114;11.674;2023-12-20T11:19:08;-19440.38;;;8.06
60731;BMP280;46580;52.114;11.674;2023-12-20T11:21:36;-19440.38;;;8.06
60731;BMP280;46580;52.114;11.674;2023-12-20T11:24:03;-19442.38;;;8.13
60731;BMP280;46580;52.114;11.674;2023-12-20T11:26:30;-19444.25;;;8.19
60731;BMP280;46580;52.114;11.674;2023-12-20T11:32:01;-19447.41;;;8.30
60731;BMP280;46580;52.114;11.674;2023-12-20T11:34:29;-19446.84;;;8.28
60731;BMP280;46580;52.114;11.674;2023-12-20T11:36:58;-19445.81;;;8.25
60731;BMP280;46580;52.114;11.674;2023-12-20T11:39:25;-19444.25;;;8.19
60731;BMP280;46580;52.114;11.674;2023-12-20T11:41:50;-19443.09;;;8.16
60731;BMP280;46580;52.114;11.674;2023-12-20T11:44:17;-19442.69;;;8.14
60731;BMP280;46580;52.114;11.674;2023-12-20T11:46:44;-19443.09;;;8.16
60731;BMP280;46580;52.114;11.674;2023-12-20T11:49:10;-19442.97;;;8.15
60731;BMP280;46580;52.114;11.674;2023-12-20T11:51:40;-19443.97;;;8.18
60731;BMP280;46580;52.114;11.674;2023-12-20T11:54:06;-19444.81;;;8.21
60731;BMP280;46580;52.114;11.674;2023-12-20T11:56:35;-19445.69;;;8.24
60731;BMP280;46580;52.114;11.674;2023-12-20T11:59:00;-19446.13;;;8.26
60731;BMP280;46580;52.114;11.674;2023-12-20T12:01:26;-19445.41;;;8.23
60731;BMP280;46580;52.114;11.674;2023-12-20T12:04:05;-19444.81;;;8.21
60731;BMP280;46580;52.114;11.674;2023-12-20T12:06:31;-19445.81;;;8.25
60731;BMP280;46580;52.114;11.674;2023-12-20T12:08:57;-19446.53;;;8.27
60731;BMP280;46580;52.114;11.674;2023-12-20T12:11:23;-19446.53;;;8.27
60731;BMP280;46580;52.114;11.674;2023-12-20T12:13:49;-19445.81;;;8.25
60731;BMP280;46580;52.114;11.674;2023-12-20T12:16:19;-19443.69;;;8.17
60731;BMP280;46580;52.114;11.674;2023-12-20T12:18:45;-19441.97;;;8.12
60731;BMP280;46580;52.114;11.674;2023-12-20T12:21:18;-19442.53;;;8.14
60731;BMP280;46580;52.114;11.674;2023-12-20T12:23:44;-19442.81;;;8.15
60731;BMP280;46580;52.114;11.674;2023-12-20T12:26:10;-19442.81;;;8.15
60731;BMP280;46580;52.114;11.674;2023-12-20T12:28:40;-19443.38;;;8.17
60731;BMP280;46580;52.114;11.674;2023-12-20T12:31:05;-19442.81;;;8.15
60731;BMP280;46580;52.114;11.674;2023-12-20T12:33:30;-19442.09;;;8.12
60731;BMP280;46580;52.114;11.674;2023-12-20T12:35:56;-19442.53;;;8.14
60731;BMP280;46580;52.114;11.674;2023-12-20T12:38:24;-19441.53;;;8.10
60731;BMP280;46580;52.114;11.674;2023-12-20T12:40:49;-19439.66;;;8.04
60731;BMP280;46580;52.114;11.674;2023-12-20T12:43:15;-19437.38;;;7.96
60731;BMP280;46580;52.114;11.674;2023-12-20T12:45:43;-19436.06;;;7.92
60731;BMP280;46580;52.114;11.674;2023-12-20T12:48:09;-19435.66;;;7.90
60731;BMP280;46580;52.114;11.674;2023-12-20T12:50:34;-19435.34;;;7.89
60731;BMP280;46580;52.114;11.674;2023-12-20T12:53:01;-19435.94;;;7.91
60731;BMP280;46580;52.114;11.674;2023-12-20T12:55:28;-19435.34;;;7.89
60731;BMP280;46580;52.114;11.674;2023-12-20T12:57:53;-19434.34;;;7.86
60731;BMP280;46580;52.114;11.674;2023-12-20T13:00:19;-19432.78;;;7.80
60731;BMP280;46580;52.114;11.674;2023-12-20T13:02:45;-19431.06;;;7.75
60731;BMP280;46580;52.114;11.674;2023-12-20T13:05:11;-19429.91;;;7.71
60731;BMP280;46580;52.114;11.674;2023-12-20T13:07:36;-19428.78;;;7.67
60731;BMP280;46580;52.114;11.674;2023-12-20T13:10:04;-19428.19;;;7.65
60731;BMP280;46580;52.114;11.674;2023-12-20T13:12:31;-19426.63;;;7.60
60731;BMP280;46580;52.114;11.674;2023-12-20T13:14:57;-19426.47;;;7.59
60731;BMP280;46580;52.114;11.674;2023-12-20T13:17:22;-19426.91;;;7.61
60731;BMP280;46580;52.114;11.674;2023-12-20T13:19:48;-19426.19;;;7.58
60731;BMP280;46580;52.114;11.674;2023-12-20T13:22:15;-19426.75;;;7.60
60731;BMP280;46580;52.114;11.674;2023-12-20T13:24:40;-19426.91;;;7.61
60731;BMP280;46580;52.114;11.674;2023-12-20T13:27:05;-19427.63;;;7.63
60731;BMP280;46580;52.114;11.674;2023-12-20T13:29:31;-19427.91;;;7.64
60731;BMP280;46580;52.114;11.674;2023-12-20T13:31:56;-19427.34;;;7.62
60731;BMP280;46580;52.114;11.674;2023-12-20T13:34:23;-19426.19;;;7.58
60731;BMP280;46580;52.114;11.674;2023-12-20T13:36:49;-19425.19;;;7.55
60731;BMP280;46580;52.114;11.674;2023-12-20T13:39:16;-19426.19;;;7.58
60731;BMP280;46580;52.114;11.674;2023-12-20T13:41:42;-19425.63;;;7.56
60731;BMP280;46580;52.114;11.674;2023-12-20T13:44:08;-19425.91;;;7.57
60731;BMP280;46580;52.114;11.674;2023-12-20T13:46:34;-19425.63;;;7.56
60731;BMP280;46580;52.114;11.674;2023-12-20T13:48:59;-19425.63;;;7.56
60731;BMP280;46580;52.114;11.674;2023-12-20T13:51:25;-19425.03;;;7.54
60731;BMP280;46580;52.114;11.674;2023-12-20T13:53:50;-19424.03;;;7.51
60731;BMP280;46580;52.114;11.674;2023-12-20T13:56:17;-19424.19;;;7.51
60731;BMP280;46580;52.114;11.674;2023-12-20T13:58:43;-19423.31;;;7.48
60731;BMP280;46580;52.114;11.674;2023-12-20T14:01:09;-19422.31;;;7.45